Weather History for Port Huron, MI

Change the Weather History Date:

Monday, March 25, 2013

  Actual Average (KMTC) Record (KMTC)
Temperature  
Mean Temperature 34 °F -  
Max Temperature 37 °F 45 °F 73 °F (1949)
Min Temperature 30 °F 27 °F 6 °F (1960)
Degree Days  
Heating Degree Days 32    
Moisture  
Dew Point 28 °F    
Average Humidity 79    
Maximum Humidity 87    
Minimum Humidity 65    
Precipitation  
Precipitation 0.00 in - - ()
Sea Level Pressure  
Sea Level Pressure 29.69 in    
Wind  
Wind Speed 13 mph (NNE)    
Max Wind Speed 21 mph    
Max Gust Speed 29 mph    
Visibility 10 miles    
Events      
Averages and records for this station are not official NWS values.
T = Trace of Precipitation, MM = Missing Value Source: NWS Daily Summary

Daily Weather History Graph

Daily Weather History Graph

Search for Another Location

Airport:

Trip Planner

Search our weather history database for the weather conditions in past years. The results will help you decide how hot, cold, wet, or windy it might be!

Date:

Astronomy

Mar. 25, 2013 Rise Set
Actual Time 7:24 AM EDT 7:48 PM EDT
Civil Twilight 6:55 AM EDT 8:16 PM EDT
Nautical Twilight 6:22 AM EDT 8:50 PM EDT
Astronomical Twilight 5:48 AM EDT 9:24 PM EDT
Moon 6:17 PM EDT (3/25) 6:08 AM EDT (3/25)
Length of Visible Light 13h 21m
Length of Day
12h 24m
Waxing Gibbous, 96% of the Moon is Illuminated
Mar 25
Waxing Gibbous
Mar 27
Full
Apr 3
Last Quarter
Apr 10
New
Apr 18
First Quarter

Hourly Weather History & Observations

Time (EDT) Temp. Windchill Dew Point Humidity Pressure Visibility Wind Dir Wind Speed Gust Speed Precip Events Conditions
12:16 AM 32.0 °F 21.6 °F 24.8 °F 75% 29.67 in 10.0 mi NNE 15.0 mph 21.9 mph N/A   Scattered Clouds
12:37 AM 32.0 °F 20.8 °F 26.6 °F 80% 29.66 in 10.0 mi NNE 17.3 mph 24.2 mph N/A   Overcast
12:57 AM 32.0 °F 22.1 °F 26.6 °F 80% 29.66 in 10.0 mi NNE 13.8 mph 19.6 mph N/A   Overcast
1:17 AM 32.0 °F 22.5 °F 26.6 °F 80% 29.66 in 10.0 mi NE 12.7 mph 18.4 mph N/A   Overcast
1:37 AM 32.0 °F 23.6 °F 26.6 °F 80% 29.65 in 10.0 mi NNE 10.4 mph 17.3 mph N/A   Overcast
1:57 AM 32.0 °F 22.1 °F 26.6 °F 80% 29.65 in 10.0 mi NE 13.8 mph 17.3 mph N/A   Overcast
2:17 AM 32.0 °F 23.0 °F 26.6 °F 80% 29.64 in 10.0 mi NE 11.5 mph - N/A   Overcast
2:37 AM 32.0 °F 21.6 °F 26.6 °F 80% 29.64 in 10.0 mi NE 15.0 mph 19.6 mph N/A   Overcast
2:57 AM 32.0 °F 21.6 °F 26.6 °F 80% 29.63 in 10.0 mi NE 15.0 mph 20.7 mph N/A   Overcast
3:17 AM 32.0 °F 20.8 °F 26.6 °F 80% 29.63 in 10.0 mi NE 17.3 mph 21.9 mph N/A   Overcast
3:36 AM 30.2 °F 20.8 °F 26.6 °F 86% 29.63 in 10.0 mi NE 11.5 mph - N/A   Overcast
3:57 AM 30.2 °F 18.9 °F 26.6 °F 86% 29.62 in 10.0 mi NE 16.1 mph 20.7 mph N/A   Overcast
4:17 AM 30.2 °F 19.8 °F 26.6 °F 86% 29.62 in 10.0 mi NNE 13.8 mph 19.6 mph N/A   Overcast
4:37 AM 30.2 °F 20.8 °F 26.6 °F 86% 29.62 in 10.0 mi NE 11.5 mph - N/A   Overcast
4:57 AM 30.2 °F 19.8 °F 26.6 °F 86% 29.61 in 10.0 mi NNE 13.8 mph - N/A   Overcast
5:17 AM 30.2 °F 20.2 °F 26.6 °F 86% 29.61 in 10.0 mi NNE 12.7 mph - N/A   Mostly Cloudy
5:37 AM 30.2 °F 20.8 °F 26.6 °F 86% 29.61 in 10.0 mi NNE 11.5 mph 18.4 mph N/A   Mostly Cloudy
5:57 AM 30.2 °F 19.8 °F 26.6 °F 86% 29.60 in 10.0 mi NNE 13.8 mph 18.4 mph N/A   Overcast
6:17 AM 30.2 °F 20.2 °F 26.6 °F 86% 29.60 in 10.0 mi NNE 12.7 mph - N/A   Mostly Cloudy
6:37 AM 30.2 °F 18.9 °F 26.6 °F 86% 29.60 in 10.0 mi NNE 16.1 mph 19.6 mph N/A   Mostly Cloudy
6:57 AM 30.2 °F 20.2 °F 26.6 °F 86% 29.60 in 10.0 mi NNE 12.7 mph 19.6 mph N/A   Overcast
7:17 AM 30.2 °F 19.3 °F 26.6 °F 86% 29.61 in 10.0 mi NNE 15.0 mph 19.6 mph N/A   Overcast
7:37 AM 30.2 °F 21.3 °F 26.6 °F 86% 29.61 in 10.0 mi NNE 10.4 mph 19.6 mph N/A   Overcast
7:57 AM 30.2 °F 19.8 °F 26.6 °F 86% 29.61 in 10.0 mi NNE 13.8 mph 25.3 mph N/A   Overcast
8:17 AM 32.0 °F 22.5 °F 26.6 °F 80% 29.62 in 10.0 mi NE 12.7 mph 20.7 mph N/A   Overcast
8:37 AM 32.0 °F 20.8 °F 26.6 °F 80% 29.62 in 10.0 mi NE 17.3 mph 24.2 mph N/A   Overcast
8:57 AM 32.0 °F 21.2 °F 26.6 °F 80% 29.63 in 10.0 mi NNE 16.1 mph 20.7 mph N/A   Overcast
9:17 AM 32.0 °F 22.1 °F 26.6 °F 80% 29.63 in 10.0 mi NNE 13.8 mph 23.0 mph N/A   Overcast
9:37 AM 32.0 °F 21.2 °F 26.6 °F 80% 29.63 in 10.0 mi NNE 16.1 mph 23.0 mph N/A   Overcast
9:57 AM 32.0 °F 22.1 °F 26.6 °F 80% 29.63 in 10.0 mi NNE 13.8 mph 23.0 mph N/A   Overcast
10:17 AM 32.0 °F 22.1 °F 26.6 °F 80% 29.63 in 10.0 mi NNE 13.8 mph 20.7 mph N/A   Overcast
10:37 AM 32.0 °F 22.5 °F 26.6 °F 80% 29.63 in 10.0 mi NNE 12.7 mph 21.9 mph N/A   Overcast
10:57 AM 32.0 °F 21.2 °F 26.6 °F 80% 29.64 in 10.0 mi NNE 16.1 mph 24.2 mph N/A   Overcast
11:17 AM 32.0 °F 21.2 °F 26.6 °F 80% 29.64 in 10.0 mi NNE 16.1 mph 21.9 mph N/A   Overcast
11:37 AM 32.0 °F 21.2 °F 26.6 °F 80% 29.65 in 10.0 mi NNE 16.1 mph 24.2 mph N/A   Overcast
11:57 AM 33.8 °F 23.9 °F 26.6 °F 75% 29.65 in 10.0 mi NNE 15.0 mph 24.2 mph N/A   Overcast
12:17 PM 33.8 °F 23.5 °F 26.6 °F 75% 29.65 in 10.0 mi NNE 16.1 mph 26.5 mph N/A   Overcast
12:37 PM 33.8 °F 24.3 °F 26.6 °F 75% 29.65 in 10.0 mi North 13.8 mph 21.9 mph N/A   Overcast
12:57 PM 35.6 °F 26.2 °F 26.6 °F 70% 29.66 in 10.0 mi NNE 15.0 mph 20.7 mph N/A   Overcast
1:17 PM 35.6 °F 25.5 °F 26.6 °F 70% 29.66 in 10.0 mi NNE 17.3 mph 25.3 mph N/A   Overcast
1:37 PM 35.6 °F 25.9 °F 26.6 °F 70% 29.66 in 10.0 mi NNE 16.1 mph 23.0 mph N/A   Overcast
1:57 PM 37.4 °F 26.9 °F 28.4 °F 70% 29.67 in 10.0 mi NE 20.7 mph 28.8 mph N/A   Mostly Cloudy
2:17 PM 37.4 °F 29.3 °F 26.6 °F 65% 29.67 in 10.0 mi North 12.7 mph 21.9 mph N/A   Mostly Cloudy
2:37 PM 37.4 °F 28.5 °F 28.4 °F 70% 29.67 in 10.0 mi NE 15.0 mph 20.7 mph N/A   Overcast
2:57 PM 37.4 °F 29.8 °F 28.4 °F 70% 29.67 in 10.0 mi NNE 11.5 mph 24.2 mph N/A   Overcast
3:17 PM 37.4 °F 28.2 °F 28.4 °F 70% 29.68 in 10.0 mi North 16.1 mph 23.0 mph N/A   Overcast
3:37 PM 37.4 °F 28.5 °F 28.4 °F 70% 29.69 in 10.0 mi North 15.0 mph 20.7 mph N/A   Overcast
3:57 PM 37.4 °F 29.3 °F 28.4 °F 70% 29.69 in 10.0 mi North 12.7 mph 21.9 mph N/A   Overcast
4:17 PM 37.4 °F 29.3 °F 28.4 °F 70% 29.70 in 10.0 mi North 12.7 mph 18.4 mph N/A   Overcast
4:37 PM 37.4 °F 28.9 °F 30.2 °F 75% 29.71 in 10.0 mi North 13.8 mph 21.9 mph N/A   Overcast
4:57 PM 37.4 °F 29.3 °F 30.2 °F 75% 29.71 in 10.0 mi North 12.7 mph 20.7 mph N/A   Overcast
5:17 PM 37.4 °F 30.8 °F 30.2 °F 75% 29.72 in 10.0 mi North 9.2 mph 18.4 mph N/A   Overcast
5:37 PM 37.4 °F 28.9 °F 30.2 °F 75% 29.73 in 10.0 mi NNE 13.8 mph 20.7 mph N/A   Overcast
5:57 PM 37.4 °F 30.3 °F 30.2 °F 75% 29.74 in 10.0 mi North 10.4 mph 23.0 mph N/A   Overcast
6:17 PM 35.6 °F 27.1 °F 30.2 °F 81% 29.75 in 10.0 mi North 12.7 mph 18.4 mph N/A   Scattered Clouds
6:37 PM 35.6 °F 27.5 °F 30.2 °F 81% 29.76 in 10.0 mi North 11.5 mph 20.7 mph N/A   Clear
6:57 PM 35.6 °F 27.5 °F 30.2 °F 81% 29.77 in 10.0 mi North 11.5 mph 16.1 mph N/A   Mostly Cloudy
7:17 PM 35.6 °F 28.0 °F 30.2 °F 81% 29.77 in 10.0 mi North 10.4 mph 20.7 mph N/A   Overcast
7:37 PM 35.6 °F 27.5 °F 30.2 °F 81% 29.79 in 10.0 mi North 11.5 mph 16.1 mph N/A   Overcast
7:57 PM 35.6 °F 28.0 °F 30.2 °F 81% 29.79 in 10.0 mi North 10.4 mph 16.1 mph N/A   Mostly Cloudy
8:16 PM 35.6 °F 29.9 °F 30.2 °F 81% 29.80 in 10.0 mi North 6.9 mph - N/A   Mostly Cloudy
8:37 PM 35.6 °F 28.0 °F 30.2 °F 81% 29.81 in 10.0 mi North 10.4 mph - N/A   Overcast
8:57 PM 35.6 °F 28.0 °F 30.2 °F 81% 29.82 in 10.0 mi North 10.4 mph 16.1 mph N/A   Overcast
9:17 PM 35.6 °F 29.9 °F 30.2 °F 81% 29.84 in 10.0 mi North 6.9 mph - N/A   Overcast
9:37 PM 35.6 °F 29.9 °F 30.2 °F 81% 29.84 in 10.0 mi North 6.9 mph - N/A   Overcast
9:57 PM 35.6 °F 30.7 °F 30.2 °F 81% 29.85 in 10.0 mi NNW 5.8 mph - N/A   Overcast
10:17 PM 35.6 °F 31.7 °F 30.2 °F 81% 29.86 in 10.0 mi NNW 4.6 mph - N/A   Overcast
10:37 PM 35.6 °F 30.7 °F 30.2 °F 81% 29.86 in 10.0 mi NNW 5.8 mph - N/A   Overcast
10:57 PM 35.6 °F 31.7 °F 30.2 °F 81% 29.86 in 10.0 mi NNW 4.6 mph - N/A   Overcast
11:17 PM 35.6 °F 30.7 °F 30.2 °F 81% 29.86 in 10.0 mi NNW 5.8 mph - N/A   Overcast
11:37 PM 35.6 °F 30.7 °F 30.2 °F 81% 29.87 in 10.0 mi NW 5.8 mph - N/A   Overcast
11:57 PM 33.8 °F 27.7 °F 30.2 °F 87% 29.87 in 10.0 mi NW 6.9 mph - N/A   Overcast